createdAt,value
2023-01-10T00:00:23.623Z,5.03
2023-01-10T00:02:51.046Z,3.53
2023-01-10T00:05:18.395Z,4.00
2023-01-10T00:07:45.746Z,3.47
2023-01-10T00:10:12.372Z,3.30
2023-01-10T00:12:57.244Z,6.40
2023-01-10T00:15:23.709Z,5.43
2023-01-10T00:17:50.107Z,4.80
2023-01-10T00:20:16.744Z,3.10
2023-01-10T00:22:43.516Z,5.13
2023-01-10T00:25:09.924Z,5.17
2023-01-10T00:27:36.514Z,4.03
2023-01-10T00:30:13.952Z,3.80
2023-01-10T00:32:42.037Z,5.70
2023-01-10T00:35:09.422Z,4.20
2023-01-10T00:37:36.440Z,4.03
2023-01-10T00:40:03.756Z,3.53
2023-01-10T00:42:49.747Z,4.20
2023-01-10T00:45:16.609Z,4.87
2023-01-10T00:47:43.513Z,5.07
2023-01-10T00:50:11.625Z,6.90
2023-01-10T00:52:38.124Z,4.27
2023-01-10T00:55:05.209Z,6.37
2023-01-10T00:57:31.633Z,4.80
2023-01-10T00:59:58.187Z,5.30
2023-01-10T01:02:24.852Z,5.83
2023-01-10T01:04:51.404Z,5.30
2023-01-10T01:07:17.803Z,5.50
2023-01-10T01:10:02.869Z,5.53
2023-01-10T01:12:29.429Z,8.27
2023-01-10T01:14:55.912Z,3.80
2023-01-10T01:17:22.335Z,4.93
2023-01-10T01:19:48.770Z,5.93
2023-01-10T01:22:15.213Z,5.50
2023-01-10T01:24:42.183Z,9.47
2023-01-10T01:27:08.563Z,4.50
2023-01-10T01:29:43.136Z,5.67
2023-01-10T01:32:10.470Z,6.57
2023-01-10T01:34:37.231Z,6.50
2023-01-10T01:37:03.716Z,4.03
2023-01-10T01:39:30.133Z,5.13
2023-01-10T01:42:00.250Z,5.50
2023-01-10T01:44:32.517Z,5.03
2023-01-10T01:47:07.371Z,4.83
2023-01-10T01:49:39.647Z,5.00
2023-01-10T01:52:10.204Z,6.13
2023-01-10T01:54:37.075Z,5.93
2023-01-10T01:57:07.339Z,9.67
2023-01-10T01:59:38.133Z,4.93
2023-01-10T02:02:30.659Z,7.17
2023-01-10T02:05:09.280Z,3.87
2023-01-10T02:07:38.102Z,4.90
2023-01-10T02:10:17.925Z,6.87
2023-01-10T02:12:45.897Z,5.00
2023-01-10T02:15:13.087Z,7.23
2023-01-10T02:17:40.011Z,5.97
2023-01-10T02:20:09.531Z,8.17
2023-01-10T02:23:06.321Z,7.27
2023-01-10T02:26:10.440Z,6.90
2023-01-10T02:28:55.860Z,6.60
2023-01-10T02:31:44.157Z,7.97
2023-01-10T02:34:38.802Z,8.20
2023-01-10T02:37:14.680Z,6.57
2023-01-10T02:39:59.272Z,8.03
2023-01-10T02:42:31.665Z,9.00
2023-01-10T02:45:04.749Z,8.30
2023-01-10T02:47:38.715Z,8.03
2023-01-10T02:50:30.465Z,6.13
2023-01-10T02:53:00.239Z,10.20
2023-01-10T02:55:39.776Z,9.07
2023-01-10T02:58:26.015Z,7.10
2023-01-10T03:00:58.211Z,6.73
2023-01-10T03:03:44.570Z,7.07
2023-01-10T03:06:19.457Z,7.37
2023-01-10T03:08:56.565Z,8.00
2023-01-10T03:11:40.050Z,11.60
2023-01-10T03:14:23.074Z,9.80
2023-01-10T03:16:59.141Z,9.07
2023-01-10T03:19:29.870Z,8.50
2023-01-10T03:21:57.700Z,9.33
2023-01-10T03:24:30.590Z,9.47
2023-01-10T03:27:22.001Z,10.73
2023-01-10T03:29:53.749Z,10.90
2023-01-10T03:32:23.977Z,9.63
2023-01-10T03:34:50.567Z,7.60
2023-01-10T03:37:47.953Z,10.03
2023-01-10T03:40:30.793Z,11.33
2023-01-10T03:43:29.749Z,8.07
2023-01-10T03:46:03.942Z,8.37
2023-01-10T03:48:34.113Z,8.90
2023-01-10T03:51:03.248Z,9.77
2023-01-10T03:53:31.423Z,9.20
2023-01-10T03:55:57.886Z,10.27
2023-01-10T03:58:24.395Z,9.93
2023-01-10T04:00:51.141Z,10.27
2023-01-10T04:03:17.712Z,8.13
2023-01-10T04:05:44.125Z,8.47
2023-01-10T04:08:10.903Z,10.47
2023-01-10T04:10:38.058Z,10.73
2023-01-10T04:13:05.460Z,8.93
2023-01-10T04:15:32.309Z,8.87
2023-01-10T04:17:58.778Z,10.47
2023-01-10T04:20:27.244Z,8.30
2023-01-10T04:22:54.743Z,7.37
2023-01-10T04:25:22.551Z,8.13
2023-01-10T04:27:52.486Z,10.83
2023-01-10T04:30:19.849Z,8.67
2023-01-10T04:32:47.283Z,10.07
2023-01-10T04:35:13.856Z,10.17
2023-01-10T04:37:40.231Z,12.43
2023-01-10T04:40:07.345Z,6.97
2023-01-10T04:42:34.037Z,12.73
2023-01-10T04:45:00.954Z,11.77
2023-01-10T04:47:27.382Z,12.43
2023-01-10T04:49:53.836Z,9.37
2023-01-10T04:52:20.402Z,9.83
2023-01-10T04:54:46.769Z,10.83
2023-01-10T04:57:13.210Z,12.57
2023-01-10T04:59:39.755Z,12.10
2023-01-10T05:02:06.260Z,11.70
2023-01-10T05:04:32.790Z,11.57
2023-01-10T05:06:59.199Z,11.50
2023-01-10T05:09:25.641Z,11.40
2023-01-10T05:11:52.022Z,9.93
2023-01-10T05:14:18.448Z,8.63
2023-01-10T05:16:44.917Z,10.33
2023-01-10T05:19:12.131Z,10.30
2023-01-10T05:21:38.660Z,12.07
2023-01-10T05:24:05.484Z,11.83
2023-01-10T05:26:31.945Z,16.10
2023-01-10T05:28:58.445Z,31.07
2023-01-10T05:31:25.333Z,32.63
2023-01-10T05:33:52.232Z,30.87
2023-01-10T05:36:19.574Z,13.50
2023-01-10T05:38:46.282Z,15.63
2023-01-10T05:41:12.745Z,15.17
2023-01-10T05:43:39.251Z,13.30
2023-01-10T05:46:05.841Z,13.30
2023-01-10T05:48:32.422Z,14.20
2023-01-10T05:50:58.910Z,12.43
2023-01-10T05:53:25.323Z,13.67
2023-01-10T05:55:56.790Z,13.53
2023-01-10T05:58:23.588Z,11.80
2023-01-10T06:00:50.377Z,11.80
2023-01-10T06:03:17.194Z,13.30
2023-01-10T06:05:43.626Z,14.40
2023-01-10T06:08:10.189Z,11.37
2023-01-10T06:10:36.599Z,13.93
2023-01-10T06:13:04.967Z,12.87
2023-01-10T06:15:33.959Z,10.07
2023-01-10T06:18:00.437Z,11.60
2023-01-10T06:20:27.165Z,10.73
2023-01-10T06:22:53.698Z,10.13
2023-01-10T06:25:20.464Z,13.37
2023-01-10T06:27:47.000Z,13.43
2023-01-10T06:30:14.102Z,12.37
2023-01-10T06:32:41.092Z,11.47
2023-01-10T06:35:08.403Z,10.37
2023-01-10T06:37:34.846Z,14.30
2023-01-10T06:40:01.311Z,13.17
2023-01-10T06:42:27.760Z,12.90
2023-01-10T06:44:54.165Z,12.87
2023-01-10T06:47:20.616Z,13.37
2023-01-10T06:49:46.994Z,11.47
2023-01-10T06:52:13.441Z,11.33
2023-01-10T06:54:41.432Z,11.47
2023-01-10T06:57:08.300Z,11.83
2023-01-10T06:59:34.749Z,14.50
2023-01-10T07:02:01.391Z,12.40
2023-01-10T07:04:27.923Z,11.67
2023-01-10T07:06:54.641Z,12.77
2023-01-10T07:09:21.135Z,12.87
2023-01-10T07:11:47.505Z,12.60
2023-01-10T07:14:13.939Z,16.50
2023-01-10T07:16:40.326Z,13.70
2023-01-10T07:19:06.753Z,13.33
2023-01-10T07:21:33.129Z,17.07
2023-01-10T07:24:02.433Z,12.73
2023-01-10T07:26:29.819Z,12.90
2023-01-10T07:28:56.748Z,15.47
2023-01-10T07:31:24.529Z,16.07
2023-01-10T07:33:52.253Z,17.67
2023-01-10T07:36:19.099Z,17.20
2023-01-10T07:38:45.571Z,14.37
2023-01-10T07:41:12.350Z,14.23
2023-01-10T07:43:38.727Z,16.57
2023-01-10T07:46:09.423Z,15.23
2023-01-10T07:48:36.710Z,12.63
2023-01-10T07:51:03.973Z,14.77
2023-01-10T07:53:30.389Z,17.73
2023-01-10T07:56:01.507Z,18.80
2023-01-10T07:58:28.567Z,15.73
2023-01-10T08:00:59.459Z,19.57
2023-01-10T08:03:26.168Z,14.03
2023-01-10T08:06:04.716Z,14.13
2023-01-10T08:08:31.365Z,16.23
2023-01-10T08:10:59.621Z,13.83
2023-01-10T08:13:26.868Z,18.27
2023-01-10T08:15:53.413Z,13.33
2023-01-10T08:18:21.441Z,15.17
2023-01-10T08:20:52.312Z,18.00
2023-01-10T08:23:19.719Z,14.13
2023-01-10T08:25:46.429Z,16.57
2023-01-10T08:28:13.203Z,18.83
2023-01-10T08:30:40.197Z,14.87
2023-01-10T08:33:08.087Z,13.67
2023-01-10T08:35:43.466Z,16.33
2023-01-10T08:38:11.678Z,13.33
2023-01-10T08:40:38.556Z,16.30
2023-01-10T08:43:08.080Z,16.73
2023-01-10T08:45:35.327Z,13.70
2023-01-10T08:48:02.389Z,10.20
2023-01-10T08:50:29.425Z,10.90
2023-01-10T08:52:59.630Z,10.30
2023-01-10T08:55:26.947Z,11.97
2023-01-10T08:57:53.711Z,11.03
2023-01-10T09:00:21.145Z,10.07
2023-01-10T09:02:47.928Z,10.53
2023-01-10T09:05:26.313Z,8.37
2023-01-10T09:07:57.790Z,11.20
2023-01-10T09:10:24.400Z,7.97
2023-01-10T09:12:56.941Z,8.70
2023-01-10T09:15:25.120Z,6.40
2023-01-10T09:17:56.782Z,6.97
2023-01-10T09:20:25.009Z,6.30
2023-01-10T09:22:51.985Z,3.93
2023-01-10T09:25:18.491Z,4.60
2023-01-10T09:27:45.083Z,4.70
2023-01-10T09:30:12.524Z,5.10
2023-01-10T09:32:39.388Z,4.43
2023-01-10T09:35:06.086Z,6.03
2023-01-10T09:37:33.834Z,4.73
2023-01-10T09:40:00.449Z,8.73
2023-01-10T09:42:50.584Z,6.57
2023-01-10T09:45:22.020Z,5.97
2023-01-10T09:48:12.409Z,6.87
2023-01-10T09:50:57.333Z,11.63
2023-01-10T09:53:25.759Z,7.07
2023-01-10T09:55:57.345Z,8.37
2023-01-10T09:58:29.564Z,9.40
2023-01-10T10:00:59.353Z,10.70
2023-01-10T10:03:26.159Z,10.73
2023-01-10T10:06:00.848Z,11.70
2023-01-10T10:08:33.681Z,11.20
2023-01-10T10:11:28.356Z,12.87
2023-01-10T10:14:21.222Z,10.40
2023-01-10T10:17:23.711Z,12.87
2023-01-10T10:20:05.522Z,12.30
2023-01-10T10:22:57.253Z,15.67
2023-01-10T10:26:02.572Z,13.67
2023-01-10T10:28:59.016Z,11.30
2023-01-10T10:31:25.644Z,15.93
2023-01-10T10:34:12.913Z,14.13
2023-01-10T10:36:59.398Z,14.83
2023-01-10T10:39:36.320Z,14.03
2023-01-10T10:42:05.754Z,11.47
2023-01-10T10:44:41.920Z,10.57
2023-01-10T10:47:20.625Z,14.20
2023-01-10T10:50:00.856Z,10.93
2023-01-10T10:52:34.491Z,15.00
2023-01-10T10:55:01.875Z,10.80
2023-01-10T10:57:30.258Z,9.53
2023-01-10T10:59:58.218Z,7.80
2023-01-10T11:02:29.996Z,8.80
2023-01-10T11:04:59.856Z,7.40
2023-01-10T11:07:30.031Z,9.63
2023-01-10T11:10:07.298Z,12.40
2023-01-10T11:12:36.245Z,7.03
2023-01-10T11:15:03.353Z,8.73
2023-01-10T11:17:31.828Z,9.83
2023-01-10T11:20:06.585Z,10.23
2023-01-10T11:22:50.945Z,11.33
2023-01-10T11:25:19.013Z,6.77
2023-01-10T11:27:51.841Z,8.00
2023-01-10T11:30:21.823Z,11.27
2023-01-10T11:32:52.792Z,10.33
2023-01-10T11:35:27.032Z,10.47
2023-01-10T11:38:09.751Z,9.73
2023-01-10T11:40:38.972Z,9.07
2023-01-10T11:43:26.716Z,10.00
2023-01-10T11:45:59.265Z,12.37
2023-01-10T11:48:50.342Z,6.60
2023-01-10T11:51:59.635Z,13.10
2023-01-10T11:54:28.053Z,9.63
2023-01-10T11:57:07.602Z,10.43
2023-01-10T11:59:34.278Z,9.33
2023-01-10T12:02:28.002Z,7.13
2023-01-10T12:04:55.778Z,9.60
2023-01-10T12:07:22.867Z,13.17
2023-01-10T12:09:56.682Z,10.33
2023-01-10T12:12:31.271Z,13.00
2023-01-10T12:14:59.133Z,13.67
2023-01-10T12:17:29.349Z,29.03
2023-01-10T12:20:00.495Z,14.50
2023-01-10T12:22:41.414Z,12.80
2023-01-10T12:25:20.738Z,13.00
2023-01-10T12:27:50.325Z,11.67
2023-01-10T12:30:31.399Z,9.40
2023-01-10T12:33:02.118Z,13.10
2023-01-10T12:35:38.788Z,10.27
2023-01-10T12:38:51.131Z,10.17
2023-01-10T12:42:08.609Z,12.80
2023-01-10T12:44:44.098Z,12.83
2023-01-10T12:47:31.149Z,11.53
2023-01-10T12:50:03.398Z,8.37
2023-01-10T12:52:42.721Z,8.80
2023-01-10T12:55:14.622Z,9.57
2023-01-10T12:57:43.068Z,12.07
2023-01-10T13:00:37.587Z,13.43
2023-01-10T13:03:16.901Z,6.77
2023-01-10T13:05:43.940Z,10.00
2023-01-10T13:08:13.511Z,8.20
2023-01-10T13:10:43.627Z,12.33
2023-01-10T13:13:36.454Z,12.30
2023-01-10T13:16:24.932Z,9.10
2023-01-10T13:19:09.825Z,6.30
2023-01-10T13:21:38.246Z,8.97
2023-01-10T13:24:07.119Z,8.60
2023-01-10T13:26:53.011Z,9.77
2023-01-10T13:29:39.430Z,11.40
2023-01-10T13:32:27.757Z,9.33
2023-01-10T13:34:55.405Z,11.03
2023-01-10T13:37:23.343Z,9.53
2023-01-10T13:39:55.711Z,10.03
2023-01-10T13:42:51.083Z,9.97
2023-01-10T13:45:31.319Z,7.07
2023-01-10T13:47:59.710Z,8.03
2023-01-10T13:50:33.491Z,7.47
2023-01-10T13:53:03.982Z,7.53
2023-01-10T13:55:42.752Z,7.50
2023-01-10T13:58:09.877Z,10.07
2023-01-10T14:00:55.418Z,7.47
2023-01-10T14:03:40.823Z,7.67
2023-01-10T14:06:28.803Z,8.93
2023-01-10T14:09:05.110Z,9.60
2023-01-10T14:11:43.937Z,11.50
2023-01-10T14:14:32.416Z,8.17
2023-01-10T14:17:18.697Z,8.10
2023-01-10T14:19:47.702Z,9.03
2023-01-10T14:22:31.037Z,7.57
2023-01-10T14:24:59.789Z,7.30
2023-01-10T14:27:32.231Z,10.03
2023-01-10T14:29:59.633Z,8.10
2023-01-10T14:32:32.529Z,11.23
2023-01-10T14:35:01.697Z,5.73
2023-01-10T14:37:32.196Z,6.27
2023-01-10T14:39:59.333Z,7.07
2023-01-10T14:42:26.215Z,7.40
2023-01-10T14:45:20.705Z,9.27
2023-01-10T14:47:48.840Z,8.10
2023-01-10T14:50:31.186Z,7.97
2023-01-10T14:53:00.587Z,7.30
2023-01-10T14:55:28.048Z,8.90
2023-01-10T14:57:59.088Z,9.33
2023-01-10T15:00:36.433Z,5.87
2023-01-10T15:03:04.217Z,5.83
2023-01-10T15:05:33.171Z,10.20
2023-01-10T15:08:28.504Z,5.67
2023-01-10T15:10:58.026Z,14.37
2023-01-10T15:13:28.804Z,8.33
2023-01-10T15:15:56.060Z,7.47
2023-01-10T15:18:36.277Z,6.03
2023-01-10T15:21:03.412Z,5.07
2023-01-10T15:23:38.388Z,10.73
2023-01-10T15:26:10.497Z,11.93
2023-01-10T15:28:37.469Z,9.33
2023-01-10T15:31:05.754Z,6.63
2023-01-10T15:33:33.154Z,12.47
2023-01-10T15:36:08.339Z,7.53
2023-01-10T15:38:38.301Z,6.07
2023-01-10T15:41:06.605Z,7.33
2023-01-10T15:43:35.326Z,8.43
2023-01-10T15:46:04.271Z,12.17
2023-01-10T15:48:35.394Z,10.20
2023-01-10T15:51:14.459Z,8.23
2023-01-10T15:54:03.723Z,8.60
2023-01-10T15:56:34.855Z,7.93
2023-01-10T15:59:03.025Z,10.17
2023-01-10T16:01:31.437Z,10.33
2023-01-10T16:04:04.484Z,7.77
2023-01-10T16:06:32.550Z,7.83
2023-01-10T16:09:02.049Z,11.60
2023-01-10T16:11:55.374Z,7.33
2023-01-10T16:14:22.195Z,7.23
2023-01-10T16:16:48.965Z,9.93
2023-01-10T16:19:15.454Z,10.27
2023-01-10T16:21:47.253Z,8.90
2023-01-10T16:24:17.819Z,8.87
2023-01-10T16:26:44.656Z,7.23
2023-01-10T16:29:11.791Z,6.37
2023-01-10T16:31:38.210Z,11.17
2023-01-10T16:34:04.781Z,4.87
2023-01-10T16:36:31.179Z,8.50
2023-01-10T16:38:57.629Z,9.10
2023-01-10T16:41:42.667Z,6.80
2023-01-10T16:44:09.133Z,7.63
2023-01-10T16:46:35.557Z,7.73
2023-01-10T16:49:02.092Z,7.67
2023-01-10T16:51:32.248Z,10.20
2023-01-10T16:53:58.663Z,9.53
2023-01-10T16:56:27.349Z,9.23
2023-01-10T16:58:54.757Z,6.73
2023-01-10T17:01:24.278Z,12.30
2023-01-10T17:03:51.904Z,8.80
2023-01-10T17:06:18.703Z,9.90
2023-01-10T17:08:45.391Z,7.97
2023-01-10T17:11:16.452Z,8.47
2023-01-10T17:13:44.378Z,9.13
2023-01-10T17:16:11.379Z,9.60
2023-01-10T17:18:39.513Z,9.23
2023-01-10T17:21:06.207Z,9.10
2023-01-10T17:23:32.627Z,10.13
2023-01-10T17:26:01.810Z,9.87
2023-01-10T17:28:29.225Z,10.27
2023-01-10T17:30:56.340Z,10.23
2023-01-10T17:33:23.044Z,10.93
2023-01-10T17:35:53.696Z,11.20
2023-01-10T17:38:21.586Z,7.23
2023-01-10T17:40:48.704Z,17.57
2023-01-10T17:43:16.160Z,13.00
2023-01-10T17:45:43.933Z,13.80
2023-01-10T17:48:13.051Z,16.97
2023-01-10T17:50:39.448Z,11.70
2023-01-10T17:53:06.550Z,14.43
2023-01-10T17:55:33.002Z,12.30
2023-01-10T17:57:59.379Z,14.63
2023-01-10T18:00:26.972Z,11.73
2023-01-10T18:02:53.395Z,13.67
2023-01-10T18:05:19.841Z,12.70
2023-01-10T18:07:46.345Z,12.63
2023-01-10T18:10:12.917Z,13.47
2023-01-10T18:12:39.401Z,20.10
2023-01-10T18:15:06.379Z,13.20
2023-01-10T18:17:33.476Z,15.13
2023-01-10T18:19:59.964Z,9.73
2023-01-10T18:22:45.037Z,10.90
2023-01-10T18:25:11.556Z,11.17
2023-01-10T18:27:37.985Z,10.47
2023-01-10T18:30:05.366Z,10.43
2023-01-10T18:32:32.454Z,9.63
2023-01-10T18:34:59.981Z,10.50
2023-01-10T18:37:26.536Z,8.07
2023-01-10T18:39:53.077Z,8.03
2023-01-10T18:42:19.747Z,8.30
2023-01-10T18:44:46.219Z,8.83
2023-01-10T18:47:12.780Z,13.30
2023-01-10T18:49:39.234Z,8.77
2023-01-10T18:52:06.521Z,6.77
2023-01-10T18:54:33.608Z,7.83
2023-01-10T18:57:00.054Z,7.97
2023-01-10T18:59:26.658Z,11.20
2023-01-10T19:01:53.111Z,8.40
2023-01-10T19:04:19.649Z,7.20
2023-01-10T19:06:46.293Z,9.50
2023-01-10T19:09:12.859Z,9.00
2023-01-10T19:11:39.344Z,10.37
2023-01-10T19:14:05.769Z,12.53
2023-01-10T19:16:32.578Z,7.97
2023-01-10T19:19:05.161Z,6.80
2023-01-10T19:21:33.203Z,6.20
2023-01-10T19:24:01.799Z,7.70
2023-01-10T19:26:28.371Z,11.30
2023-01-10T19:28:54.791Z,11.33
2023-01-10T19:31:26.653Z,12.27
2023-01-10T19:33:53.719Z,10.87
2023-01-10T19:36:22.333Z,18.33
2023-01-10T19:38:48.947Z,12.07
2023-01-10T19:41:15.944Z,13.27
2023-01-10T19:43:42.368Z,8.50
2023-01-10T19:46:11.240Z,8.60
2023-01-10T19:48:38.354Z,9.50
2023-01-10T19:51:09.336Z,11.13
2023-01-10T19:53:37.125Z,15.27
2023-01-10T19:56:05.478Z,16.30
2023-01-10T19:58:32.935Z,12.27
2023-01-10T20:01:11.294Z,16.37
2023-01-10T20:03:38.998Z,16.67
2023-01-10T20:06:06.405Z,12.27
2023-01-10T20:08:32.807Z,13.37
2023-01-10T20:11:06.332Z,10.77
2023-01-10T20:13:34.447Z,8.53
2023-01-10T20:16:01.639Z,10.97
2023-01-10T20:18:29.119Z,9.43
2023-01-10T20:20:56.083Z,9.20
2023-01-10T20:23:23.517Z,14.30
2023-01-10T20:26:06.116Z,7.20
2023-01-10T20:28:33.659Z,11.20
2023-01-10T20:31:00.676Z,9.20
2023-01-10T20:33:27.563Z,10.13
2023-01-10T20:35:58.965Z,9.47
2023-01-10T20:38:27.021Z,8.20
2023-01-10T20:41:23.971Z,10.87
2023-01-10T20:43:51.158Z,8.83
2023-01-10T20:46:30.681Z,10.43
2023-01-10T20:48:57.882Z,9.73
2023-01-10T20:51:27.280Z,7.87
2023-01-10T20:53:53.880Z,9.53
2023-01-10T20:56:22.564Z,8.70
2023-01-10T20:58:50.622Z,9.23
2023-01-10T21:01:28.660Z,7.10
2023-01-10T21:03:59.670Z,10.00
2023-01-10T21:06:26.729Z,10.37
2023-01-10T21:08:53.365Z,8.07
2023-01-10T21:11:20.892Z,9.20
2023-01-10T21:13:47.323Z,7.13
2023-01-10T21:16:17.066Z,8.10
2023-01-10T21:18:46.538Z,6.50
2023-01-10T21:21:15.404Z,8.63
2023-01-10T21:23:42.357Z,8.10
2023-01-10T21:26:14.138Z,7.83
2023-01-10T21:28:42.455Z,8.80
2023-01-10T21:31:10.142Z,9.63
2023-01-10T21:33:37.194Z,10.13
2023-01-10T21:36:04.378Z,6.80
2023-01-10T21:38:30.842Z,8.00
2023-01-10T21:41:05.348Z,9.33
2023-01-10T21:43:32.266Z,8.17
2023-01-10T21:45:59.725Z,11.80
2023-01-10T21:48:26.175Z,11.13
2023-01-10T21:50:53.449Z,8.53
2023-01-10T21:53:20.480Z,9.33
2023-01-10T21:55:46.922Z,8.67
2023-01-10T21:58:13.386Z,8.47
2023-01-10T22:00:39.836Z,9.20
2023-01-10T22:03:06.317Z,8.53
2023-01-10T22:05:32.765Z,11.93
2023-01-10T22:07:59.181Z,10.20
2023-01-10T22:10:25.541Z,8.47
2023-01-10T22:12:51.994Z,10.13
2023-01-10T22:15:18.456Z,10.03
2023-01-10T22:17:44.909Z,9.13
2023-01-10T22:20:11.716Z,9.77
2023-01-10T22:22:38.313Z,9.77
2023-01-10T22:25:05.444Z,10.30
2023-01-10T22:27:31.850Z,12.37
2023-01-10T22:29:58.283Z,10.17
2023-01-10T22:32:24.723Z,10.13
2023-01-10T22:34:51.160Z,9.93
2023-01-10T22:37:17.659Z,9.57
2023-01-10T22:39:44.138Z,11.87
2023-01-10T22:42:10.506Z,14.13
2023-01-10T22:44:36.914Z,12.37
2023-01-10T22:47:03.460Z,11.90
2023-01-10T22:49:29.902Z,11.57
2023-01-10T22:51:56.314Z,13.40
2023-01-10T22:54:22.832Z,16.90
2023-01-10T22:56:49.312Z,15.20
2023-01-10T22:59:16.298Z,16.47
2023-01-10T23:01:42.823Z,14.43
2023-01-10T23:04:10.362Z,19.40
2023-01-10T23:06:36.801Z,17.03
2023-01-10T23:09:03.652Z,15.80
2023-01-10T23:11:30.066Z,15.80
2023-01-10T23:13:56.506Z,18.60
2023-01-10T23:16:28.663Z,19.37
2023-01-10T23:18:57.079Z,21.80
2023-01-10T23:21:24.352Z,20.20
2023-01-10T23:23:51.191Z,20.83
2023-01-10T23:26:18.424Z,21.87
2023-01-10T23:28:47.448Z,19.57
2023-01-10T23:31:15.631Z,19.73
2023-01-10T23:33:42.472Z,22.97
2023-01-10T23:36:09.571Z,23.13
2023-01-10T23:38:36.295Z,23.13
2023-01-10T23:41:03.281Z,18.73
2023-01-10T23:43:30.717Z,18.37
2023-01-10T23:45:57.460Z,18.47
2023-01-10T23:48:23.975Z,19.40
2023-01-10T23:50:50.994Z,20.27
2023-01-10T23:53:18.548Z,18.70
2023-01-10T23:55:44.956Z,21.93
2023-01-10T23:58:11.507Z,21.67
